Time;durP1;ratioP1;P1;durP2;ratioP2;P2;SDS_P1;SDS_P2;PMS_P1;PMS_P2;Temp;Humidity;BMP_temperature;BMP_pressure;BME280_temperature;BME280_humidity;BME280_pressure;Samples;Min_cycle;Max_cycle;Signal;HPM_P1;HPM_P2
2021/08/21 00:00:34;;;;;;;;;;;;;;;24.93;42.42;100875.41;5096956;28;786;-40
2021/08/21 00:02:59;;;;;;;;;;;;;;;24.81;44.23;100872.16;5080377;28;965;-38
2021/08/21 00:05:24;;;;;;;;;;;;;;;25.38;41.61;100872.44;5076695;28;814;-41
2021/08/21 00:07:50;;;;;;;;;;;;;;;25.26;42.52;100877.28;5076279;28;815;-38
2021/08/21 00:10:15;;;;;;;;;;;;;;;25.45;42.84;100872.59;5076161;28;823;-39
2021/08/21 00:12:40;;;;;;;;;;;;;;;23.90;43.59;100869.91;5076105;28;771;-38
2021/08/21 00:15:07;;;;;;;;;;;;;;;23.59;46.06;100868.50;5075825;28;887;-38
2021/08/21 00:17:32;;;;;;;;;;;;;;;24.62;43.09;100877.81;5086375;28;1902;-39
2021/08/21 00:19:57;;;;;;;;;;;;;;;24.79;43.71;100876.84;5088752;28;1206;-36
2021/08/21 00:22:22;;;;;;;;;;;;;;;25.31;41.76;100871.41;5076446;28;866;-41
2021/08/21 00:24:48;;;;;;;;;;;;;;;25.44;41.85;100871.75;5075939;28;815;-35
2021/08/21 00:27:13;;;;;;;;;;;;;;;25.43;42.26;100871.91;5076099;28;759;-41
2021/08/21 00:29:39;;;;;;;;;;;;;;;23.68;43.37;100865.88;5078384;28;871;-36
2021/08/21 00:32:05;;;;;;;;;;;;;;;23.99;45.04;100861.88;5081163;28;955;-38
2021/08/21 00:34:30;;;;;;;;;;;;;;;24.86;41.95;100868.97;5079129;28;1382;-38
2021/08/21 00:36:55;;;;;;;;;;;;;;;25.05;42.21;100870.56;5078955;28;1906;-39
2021/08/21 00:39:21;;;;;;;;;;;;;;;25.16;42.78;100868.53;5079362;28;876;-37
2021/08/21 00:41:46;;;;;;;;;;;;;;;25.52;41.20;100870.91;5079382;28;811;-38
2021/08/21 00:44:11;;;;;;;;;;;;;;;25.39;42.53;100866.03;5085904;28;801;-36
2021/08/21 00:46:55;;;;;;;;;;;;;;;23.39;43.99;100861.59;5095174;28;1443;-39
2021/08/21 00:49:21;;;;;;;;;;;;;;;24.48;43.26;100868.50;5078874;28;1064;-40
2021/08/21 00:51:46;;;;;;;;;;;;;;;24.90;42.76;100858.72;5079311;28;795;-37
2021/08/21 00:54:11;;;;;;;;;;;;;;;25.31;41.28;100861.47;5079201;28;763;-37
2021/08/21 00:56:37;;;;;;;;;;;;;;;25.38;42.01;100863.50;5078702;28;1909;-35
2021/08/21 00:59:02;;;;;;;;;;;;;;;25.71;40.63;100868.88;5079188;28;854;-38
2021/08/21 01:01:27;;;;;;;;;;;;;;;24.21;41.85;100858.66;5080695;28;1099;-37
2021/08/21 01:03:53;;;;;;;;;;;;;;;23.40;45.17;100853.44;5099313;28;783;-38
2021/08/21 01:06:18;;;;;;;;;;;;;;;24.60;42.95;100861.00;5098229;28;888;-41
2021/08/21 01:08:43;;;;;;;;;;;;;;;24.55;44.63;100854.28;5099285;28;739;-43
2021/08/21 01:11:08;;;;;;;;;;;;;;;25.34;41.51;100857.59;5098981;28;835;-44
2021/08/21 01:13:34;;;;;;;;;;;;;;;25.36;42.00;100854.78;5098654;28;815;-41
2021/08/21 01:15:59;;;;;;;;;;;;;;;25.46;42.52;100854.59;5099451;28;1968;-36
2021/08/21 01:18:24;;;;;;;;;;;;;;;24.14;42.99;100846.81;5079733;28;998;-40
2021/08/21 01:20:50;;;;;;;;;;;;;;;23.61;45.93;100844.16;5077610;28;847;-38
2021/08/21 01:23:15;;;;;;;;;;;;;;;24.75;42.36;100851.28;5078508;28;859;-42
2021/08/21 01:25:40;;;;;;;;;;;;;;;24.78;43.54;100844.72;5078133;28;767;-42
2021/08/21 01:28:06;;;;;;;;;;;;;;;25.47;40.80;100854.41;5078577;28;763;-39
2021/08/21 01:30:31;;;;;;;;;;;;;;;25.58;41.12;100850.53;5078992;28;797;-38
2021/08/21 01:32:56;;;;;;;;;;;;;;;25.14;43.22;100843.66;5092549;28;967;-36
2021/08/21 01:35:22;;;;;;;;;;;;;;;23.70;43.12;100848.63;5098830;28;791;-38
2021/08/21 01:37:47;;;;;;;;;;;;;;;24.15;44.32;100848.53;5098516;28;1973;-37
2021/08/21 01:40:14;;;;;;;;;;;;;;;24.92;41.67;100851.38;5097004;28;862;-36
2021/08/21 01:42:40;;;;;;;;;;;;;;;25.03;42.08;100845.66;5098960;28;797;-38
2021/08/21 01:45:09;;;;;;;;;;;;;;;24.86;43.80;100847.44;5098307;28;826;-41
2021/08/21 01:47:34;;;;;;;;;;;;;;;25.60;41.01;100835.03;5097536;28;954;-42
2021/08/21 01:50:00;;;;;;;;;;;;;;;25.32;42.04;100843.47;5098483;28;1315;-38
2021/08/21 01:52:26;;;;;;;;;;;;;;;25.64;41.79;100849.06;5098292;28;756;-42
2021/08/21 01:54:51;;;;;;;;;;;;;;;24.14;42.55;100841.44;5098150;28;753;-42
2021/08/21 01:57:16;;;;;;;;;;;;;;;23.80;45.52;100839.59;5098688;28;1969;-42
2021/08/21 01:59:42;;;;;;;;;;;;;;;24.91;42.14;100838.91;5098555;28;819;-36
2021/08/21 02:02:08;;;;;;;;;;;;;;;24.83;43.21;100837.88;5089937;28;977;-37
2021/08/21 02:04:33;;;;;;;;;;;;;;;25.47;41.19;100819.41;5077962;28;731;-39
2021/08/21 02:06:59;;;;;;;;;;;;;;;25.71;40.62;100828.47;5077939;28;746;-39
2021/08/21 02:09:24;;;;;;;;;;;;;;;25.90;40.24;100827.25;5077341;28;760;-46
2021/08/21 02:11:50;;;;;;;;;;;;;;;26.08;40.13;100828.03;5077865;28;740;-45
2021/08/21 02:14:15;;;;;;;;;;;;;;;26.20;39.86;100831.19;5077877;28;824;-44
2021/08/21 02:16:41;;;;;;;;;;;;;;;26.21;39.65;100824.81;5081061;28;1902;-44
2021/08/21 02:19:06;;;;;;;;;;;;;;;26.32;39.55;100837.06;5097852;28;732;-46
2021/08/21 02:21:32;;;;;;;;;;;;;;;26.36;39.31;100835.72;5097772;28;710;-38
2021/08/21 02:23:58;;;;;;;;;;;;;;;26.44;39.45;100838.38;5097445;28;870;-39
2021/08/21 02:26:26;;;;;;;;;;;;;;;26.47;39.19;100834.47;5097907;28;878;-44
2021/08/21 02:28:54;;;;;;;;;;;;;;;26.59;38.93;100829.53;5097504;28;764;-47
2021/08/21 02:31:20;;;;;;;;;;;;;;;26.50;39.36;100831.44;5095568;28;914;-38
2021/08/21 02:33:45;;;;;;;;;;;;;;;26.57;39.34;100839.66;5077105;28;859;-38
2021/08/21 02:36:12;;;;;;;;;;;;;;;26.62;39.04;100838.13;5076779;28;1898;-39
2021/08/21 02:38:38;;;;;;;;;;;;;;;26.71;39.12;100841.59;5076667;28;863;-39
2021/08/21 02:41:03;;;;;;;;;;;;;;;26.72;39.23;100840.59;5077386;28;755;-39
2021/08/21 02:43:28;;;;;;;;;;;;;;;26.80;38.90;100838.84;5076454;28;860;-39
2021/08/21 02:45:54;;;;;;;;;;;;;;;26.78;39.24;100847.13;5077008;28;751;-47
2021/08/21 02:48:19;;;;;;;;;;;;;;;26.84;39.10;100845.56;5094622;28;1172;-39
2021/08/21 02:50:44;;;;;;;;;;;;;;;26.88;39.00;100844.19;5097321;28;779;-46
2021/08/21 02:53:09;;;;;;;;;;;;;;;26.94;38.83;100848.88;5097005;28;835;-40
2021/08/21 02:55:35;;;;;;;;;;;;;;;26.99;38.88;100849.16;5097132;28;784;-40
2021/08/21 02:58:00;;;;;;;;;;;;;;;26.97;38.78;100851.22;5096804;28;1973;-42
2021/08/21 03:00:25;;;;;;;;;;;;;;;26.92;39.11;100850.06;5097122;28;839;-43
2021/08/21 03:02:51;;;;;;;;;;;;;;;26.52;38.88;100850.97;5082867;28;1021;-37
2021/08/21 03:05:16;;;;;;;;;;;;;;;25.96;38.93;100852.66;5076798;28;847;-39
2021/08/21 03:07:41;;;;;;;;;;;;;;;25.19;40.54;100849.38;5076920;28;826;-38
2021/08/21 03:10:07;;;;;;;;;;;;;;;25.48;40.18;100853.41;5075998;28;804;-39
2021/08/21 03:12:32;;;;;;;;;;;;;;;25.77;40.41;100853.91;5076736;28;847;-39
2021/08/21 03:14:58;;;;;;;;;;;;;;;25.63;40.48;100856.28;5076788;28;744;-37
2021/08/21 03:17:23;;;;;;;;;;;;;;;25.53;40.13;100861.81;5076550;28;1967;-36
2021/08/21 03:19:48;;;;;;;;;;;;;;;25.45;40.37;100856.44;5076490;28;752;-38
2021/08/21 03:22:14;;;;;;;;;;;;;;;25.39;40.39;100855.25;5082508;28;1455;-37
2021/08/21 03:24:39;;;;;;;;;;;;;;;25.22;40.27;100861.66;5087268;28;748;-37
2021/08/21 03:27:04;;;;;;;;;;;;;;;25.26;40.04;100865.69;5093219;28;874;-36
2021/08/21 03:29:29;;;;;;;;;;;;;;;25.30;40.00;100873.28;5076512;28;871;-34
2021/08/21 03:31:55;;;;;;;;;;;;;;;25.24;40.29;100878.50;5082278;28;962;-38
2021/08/21 03:34:24;;;;;;;;;;;;;;;25.02;40.75;100870.03;5082882;28;767;-34
2021/08/21 03:36:49;;;;;;;;;;;;;;;24.76;41.26;100871.81;5076706;28;1882;-37
2021/08/21 03:39:15;;;;;;;;;;;;;;;24.45;42.05;100883.13;5075552;28;874;-37
2021/08/21 03:41:40;;;;;;;;;;;;;;;24.75;41.41;100880.03;5076728;28;768;-36
2021/08/21 03:44:05;;;;;;;;;;;;;;;24.53;41.78;100885.84;5076428;28;808;-37
2021/08/21 03:46:30;;;;;;;;;;;;;;;24.38;42.48;100893.69;5078312;28;950;-36
2021/08/21 03:48:56;;;;;;;;;;;;;;;24.54;41.97;100889.41;5089660;28;1236;-39
2021/08/21 03:51:21;;;;;;;;;;;;;;;23.86;43.66;100887.31;5096603;28;763;-38
2021/08/21 03:53:46;;;;;;;;;;;;;;;23.73;44.20;100890.41;5095890;28;810;-38
2021/08/21 03:56:12;;;;;;;;;;;;;;;24.27;42.90;100888.59;5096448;28;1902;-40
2021/08/21 03:58:37;;;;;;;;;;;;;;;24.53;42.40;100890.38;5079133;28;1478;-42
2021/08/21 04:01:02;;;;;;;;;;;;;;;24.79;41.96;100894.84;5083784;28;1321;-43
2021/08/21 04:03:27;;;;;;;;;;;;;;;24.46;42.50;100887.50;5078823;28;1215;-43
2021/08/21 04:05:53;;;;;;;;;;;;;;;24.78;41.85;100879.72;5082881;28;1241;-41
2021/08/21 04:08:18;;;;;;;;;;;;;;;24.81;41.72;100882.06;5090030;28;1455;-39
2021/08/21 04:10:43;;;;;;;;;;;;;;;25.30;40.64;100884.03;5092918;28;1399;-40
2021/08/21 04:13:08;;;;;;;;;;;;;;;25.56;40.14;100888.41;5081553;28;1241;-40
2021/08/21 04:15:34;;;;;;;;;;;;;;;25.89;39.64;100892.13;5086538;28;1182;-39
2021/08/21 04:17:59;;;;;;;;;;;;;;;26.02;39.15;100884.34;5091224;28;1905;-40
2021/08/21 04:20:24;;;;;;;;;;;;;;;26.16;39.36;100888.16;5085522;28;1253;-41
2021/08/21 04:22:49;;;;;;;;;;;;;;;26.20;39.68;100893.22;5093184;28;1463;-41
2021/08/21 04:25:15;;;;;;;;;;;;;;;26.13;39.42;100893.91;5093965;28;1580;-38
2021/08/21 04:27:40;;;;;;;;;;;;;;;26.20;39.29;100895.91;5090797;28;1427;-39
2021/08/21 04:30:06;;;;;;;;;;;;;;;26.11;39.71;100898.63;5084831;28;1217;-38
2021/08/21 04:32:31;;;;;;;;;;;;;;;26.16;39.75;100896.25;5078373;28;1050;-41
2021/08/21 04:34:56;;;;;;;;;;;;;;;26.32;39.25;100893.69;5082240;28;1189;-41
2021/08/21 04:37:21;;;;;;;;;;;;;;;26.23;39.84;100898.25;5091227;28;1901;-42
2021/08/21 04:39:47;;;;;;;;;;;;;;;26.16;40.15;100901.66;5088189;28;1395;-37
2021/08/21 04:42:12;;;;;;;;;;;;;;;26.15;40.06;100899.97;5088510;28;1360;-39
2021/08/21 04:44:37;;;;;;;;;;;;;;;26.08;39.16;100898.13;5090726;28;791;-39
2021/08/21 04:47:03;;;;;;;;;;;;;;;26.11;39.68;100900.50;5086363;28;946;-40
2021/08/21 04:49:28;;;;;;;;;;;;;;;26.27;39.47;100902.31;5099535;28;1071;-37
2021/08/21 04:51:54;;;;;;;;;;;;;;;26.46;39.07;100900.25;5098955;28;828;-37
2021/08/21 04:54:20;;;;;;;;;;;;;;;26.56;38.97;100897.34;5099591;28;737;-40
2021/08/21 04:56:45;;;;;;;;;;;;;;;26.50;38.61;100899.72;5086898;28;1913;-37
2021/08/21 04:59:11;;;;;;;;;;;;;;;26.51;38.99;100893.28;5087804;28;819;-40
2021/08/21 05:01:36;;;;;;;;;;;;;;;26.56;39.10;100895.47;5084745;28;1475;-38
2021/08/21 05:04:01;;;;;;;;;;;;;;;26.64;38.93;100900.81;5079571;28;795;-42
2021/08/21 05:06:27;;;;;;;;;;;;;;;26.76;38.83;100903.97;5078678;28;775;-37
2021/08/21 05:08:52;;;;;;;;;;;;;;;26.81;38.93;100906.13;5079183;28;840;-40
2021/08/21 05:11:17;;;;;;;;;;;;;;;26.90;38.55;100905.09;5078797;28;783;-40
2021/08/21 05:13:42;;;;;;;;;;;;;;;26.93;38.62;100908.41;5078685;28;817;-37
2021/08/21 05:16:08;;;;;;;;;;;;;;;26.92;39.11;100906.75;5078437;28;1930;-38
2021/08/21 05:18:40;;;;;;;;;;;;;;;27.03;38.73;100911.78;5079096;28;910;-40
2021/08/21 05:21:10;;;;;;;;;;;;;;;27.04;38.50;100912.63;5078872;28;827;-39
2021/08/21 05:23:35;;;;;;;;;;;;;;;27.07;39.02;100918.50;5078644;28;1451;-39
2021/08/21 05:26:00;;;;;;;;;;;;;;;26.84;38.96;100918.44;5078562;28;746;-39
2021/08/21 05:28:26;;;;;;;;;;;;;;;26.70;39.32;100911.94;5079478;28;787;-40
2021/08/21 05:30:51;;;;;;;;;;;;;;;26.83;39.57;100917.59;5078224;28;768;-39
2021/08/21 05:33:16;;;;;;;;;;;;;;;27.07;39.17;100910.41;5082851;28;959;-38
2021/08/21 05:35:42;;;;;;;;;;;;;;;27.25;38.64;100917.38;5078540;28;1099;-40
2021/08/21 05:38:07;;;;;;;;;;;;;;;27.37;38.67;100913.25;5077940;28;1909;-40
2021/08/21 05:40:33;;;;;;;;;;;;;;;27.46;38.41;100914.00;5077943;28;998;-40
2021/08/21 05:42:58;;;;;;;;;;;;;;;27.59;38.23;100917.97;5083936;28;839;-38
2021/08/21 05:45:23;;;;;;;;;;;;;;;27.61;38.13;100918.63;5098286;28;862;-40
2021/08/21 05:47:49;;;;;;;;;;;;;;;27.49;38.72;100913.63;5084376;28;1100;-41
2021/08/21 05:50:14;;;;;;;;;;;;;;;27.54;38.47;100913.09;5078567;28;829;-37
2021/08/21 05:52:39;;;;;;;;;;;;;;;27.69;38.12;100912.31;5077685;28;744;-40
2021/08/21 05:55:05;;;;;;;;;;;;;;;27.77;38.03;100912.25;5077408;28;887;-39
2021/08/21 05:57:30;;;;;;;;;;;;;;;27.78;38.18;100915.81;5078194;28;1979;-37
2021/08/21 05:59:56;;;;;;;;;;;;;;;27.96;38.05;100913.56;5078098;28;799;-38
2021/08/21 06:02:21;;;;;;;;;;;;;;;27.97;38.05;100904.44;5077557;28;970;-41
2021/08/21 06:04:46;;;;;;;;;;;;;;;27.94;38.03;100910.22;5078027;28;799;-39
2021/08/21 06:07:11;;;;;;;;;;;;;;;27.94;38.15;100915.63;5077517;28;728;-38
2021/08/21 06:09:37;;;;;;;;;;;;;;;27.95;38.35;100919.16;5077390;28;788;-39
2021/08/21 06:12:02;;;;;;;;;;;;;;;28.09;37.81;100912.09;5077932;28;772;-40
2021/08/21 06:14:28;;;;;;;;;;;;;;;28.09;37.61;100909.41;5079036;28;1451;-38
2021/08/21 06:16:53;;;;;;;;;;;;;;;27.59;38.06;100909.84;5089587;28;1914;-39
2021/08/21 06:19:18;;;;;;;;;;;;;;;27.61;38.58;100914.03;5081464;28;1530;-39
2021/08/21 06:21:44;;;;;;;;;;;;;;;27.95;37.94;100914.59;5095794;28;815;-38
2021/08/21 06:24:09;;;;;;;;;;;;;;;28.08;37.74;100915.81;5088830;28;1456;-42
2021/08/21 06:26:35;;;;;;;;;;;;;;;28.15;37.46;100907.78;5080698;28;1479;-41
2021/08/21 06:29:00;;;;;;;;;;;;;;;28.30;37.52;100915.91;5077986;28;1328;-35
2021/08/21 06:31:25;;;;;;;;;;;;;;;28.29;37.50;100912.38;5093819;28;1074;-41
2021/08/21 06:33:51;;;;;;;;;;;;;;;28.28;37.48;100915.28;5076191;28;1507;-42
2021/08/21 06:36:16;;;;;;;;;;;;;;;28.38;37.24;100923.16;5076957;28;1905;-40
2021/08/21 06:38:41;;;;;;;;;;;;;;;28.43;37.24;100924.25;5094358;28;749;-41
2021/08/21 06:41:06;;;;;;;;;;;;;;;28.42;37.26;100917.16;5087056;28;1090;-41
2021/08/21 06:43:32;;;;;;;;;;;;;;;28.48;37.21;100910.16;5076666;28;803;-41
2021/08/21 06:45:57;;;;;;;;;;;;;;;28.46;37.13;100915.75;5089506;28;854;-39
2021/08/21 06:48:22;;;;;;;;;;;;;;;28.54;37.24;100906.72;5078642;28;1280;-41
2021/08/21 06:50:48;;;;;;;;;;;;;;;28.58;37.10;100912.56;5077287;28;759;-42
2021/08/21 06:53:15;;;;;;;;;;;;;;;28.60;37.09;100918.63;5076241;28;792;-41
2021/08/21 06:55:40;;;;;;;;;;;;;;;28.68;36.96;100918.50;5076978;28;811;-42
2021/08/21 06:58:06;;;;;;;;;;;;;;;28.55;37.40;100919.19;5077232;28;1917;-39
2021/08/21 07:00:31;;;;;;;;;;;;;;;28.62;37.20;100913.88;5076204;28;1234;-38
2021/08/21 07:02:56;;;;;;;;;;;;;;;28.68;37.13;100915.81;5082321;28;847;-39
2021/08/21 07:05:22;;;;;;;;;;;;;;;27.93;37.32;100918.50;5085225;28;783;-39
2021/08/21 07:07:47;;;;;;;;;;;;;;;27.77;37.45;100919.50;5085182;28;867;-39
2021/08/21 07:10:12;;;;;;;;;;;;;;;27.53;37.83;100911.41;5076922;28;763;-40
2021/08/21 07:12:38;;;;;;;;;;;;;;;27.48;38.08;100917.38;5075612;28;840;-41
2021/08/21 07:15:03;;;;;;;;;;;;;;;27.57;38.13;100912.75;5076187;28;914;-41
2021/08/21 07:17:28;;;;;;;;;;;;;;;27.86;38.13;100918.44;5084463;28;1910;-39
2021/08/21 07:19:54;;;;;;;;;;;;;;;27.58;37.94;100910.84;5076099;28;760;-38
2021/08/21 07:22:19;;;;;;;;;;;;;;;27.51;38.00;100917.00;5081444;28;1285;-40
2021/08/21 07:24:44;;;;;;;;;;;;;;;27.46;37.95;100918.56;5089670;28;1516;-38
2021/08/21 07:27:09;;;;;;;;;;;;;;;27.42;37.87;100914.53;5096306;28;902;-41
2021/08/21 07:29:35;;;;;;;;;;;;;;;27.89;36.90;100912.66;5087592;28;1479;-42
2021/08/21 07:32:00;;;;;;;;;;;;;;;28.07;36.90;100919.56;5085358;28;848;-41
2021/08/21 07:34:25;;;;;;;;;;;;;;;28.26;36.63;100923.56;5075500;28;826;-37
2021/08/21 07:36:51;;;;;;;;;;;;;;;28.38;36.49;100920.44;5096678;28;1902;-42
2021/08/21 07:39:16;;;;;;;;;;;;;;;28.36;36.53;100918.75;5098474;28;828;-41
2021/08/21 07:41:41;;;;;;;;;;;;;;;28.40;36.31;100911.09;5100268;28;819;-42
2021/08/21 07:44:07;;;;;;;;;;;;;;;28.51;36.13;100922.47;5096586;28;993;-42
2021/08/21 07:46:32;;;;;;;;;;;;;;;28.58;36.35;100921.53;5083215;28;919;-42
2021/08/21 07:48:57;;;;;;;;;;;;;;;28.56;36.30;100922.75;5100220;28;1527;-40
2021/08/21 07:51:23;;;;;;;;;;;;;;;28.53;36.13;100920.44;5099698;28;883;-42
2021/08/21 07:53:48;;;;;;;;;;;;;;;28.49;36.07;100914.56;5094439;28;1344;-40
2021/08/21 07:56:13;;;;;;;;;;;;;;;28.53;35.88;100907.72;5086866;28;1906;-41
2021/08/21 07:58:38;;;;;;;;;;;;;;;28.65;36.48;100926.16;5087494;28;1380;-41
2021/08/21 08:01:04;;;;;;;;;;;;;;;28.45;36.11;100929.47;5084418;28;762;-42
2021/08/21 08:03:29;;;;;;;;;;;;;;;28.31;36.10;100915.72;5094403;28;1225;-41
2021/08/21 08:05:54;;;;;;;;;;;;;;;28.41;35.52;100912.75;5094073;28;799;-44
2021/08/21 08:08:20;;;;;;;;;;;;;;;28.40;35.48;100911.09;5080190;28;1397;-41
2021/08/21 08:10:45;;;;;;;;;;;;;;;28.47;35.44;100916.59;5081930;28;779;-38
2021/08/21 08:13:11;;;;;;;;;;;;;;;28.37;35.97;100914.19;5100275;28;760;-40
2021/08/21 08:15:36;;;;;;;;;;;;;;;28.41;36.33;100917.34;5098227;28;867;-43
2021/08/21 08:18:02;;;;;;;;;;;;;;;28.64;36.10;100919.94;5084386;28;1971;-42
2021/08/21 08:20:27;;;;;;;;;;;;;;;28.61;36.07;100928.44;5079858;28;833;-41
2021/08/21 08:22:53;;;;;;;;;;;;;;;28.66;35.82;100922.47;5079343;28;771;-37
2021/08/21 08:25:18;;;;;;;;;;;;;;;28.69;35.60;100922.06;5079085;28;1221;-39
2021/08/21 08:27:45;;;;;;;;;;;;;;;28.72;35.69;100922.53;5079675;28;883;-39
2021/08/21 08:30:10;;;;;;;;;;;;;;;28.78;35.57;100920.09;5079439;28;895;-41
2021/08/21 08:32:36;;;;;;;;;;;;;;;28.84;35.60;100922.03;5084517;28;772;-42
2021/08/21 08:35:01;;;;;;;;;;;;;;;28.77;36.54;100921.13;5099325;28;741;-39
2021/08/21 08:37:26;;;;;;;;;;;;;;;28.57;36.61;100914.44;5099662;28;1898;-39
2021/08/21 08:39:51;;;;;;;;;;;;;;;28.73;36.23;100909.81;5099768;28;767;-42
2021/08/21 08:42:18;;;;;;;;;;;;;;;28.92;36.02;100908.38;5095080;28;867;-41
2021/08/21 08:44:46;;;;;;;;;;;;;;;28.90;36.08;100923.13;5078342;28;742;-39
2021/08/21 08:47:12;;;;;;;;;;;;;;;28.93;36.09;100911.91;5087351;28;856;-41
2021/08/21 08:49:37;;;;;;;;;;;;;;;29.20;35.59;100923.06;5092439;28;1129;-41
2021/08/21 08:52:05;;;;;;;;;;;;;;;29.22;35.50;100918.31;5079006;28;839;-41
2021/08/21 08:54:30;;;;;;;;;;;;;;;29.19;35.71;100926.81;5077719;28;818;-38
2021/08/21 08:56:55;;;;;;;;;;;;;;;29.14;35.71;100921.13;5078841;28;1964;-37
2021/08/21 08:59:21;;;;;;;;;;;;;;;28.65;35.98;100918.91;5078865;28;831;-39
2021/08/21 09:01:46;;;;;;;;;;;;;;;28.20;36.33;100914.34;5082726;28;884;-38
2021/08/21 09:04:18;;;;;;;;;;;;;;;28.13;36.92;100916.09;5087419;28;855;-38
2021/08/21 09:06:44;;;;;;;;;;;;;;;28.28;37.22;100918.00;5077784;28;839;-37
2021/08/21 09:09:10;;;;;;;;;;;;;;;28.42;37.01;100916.31;5078926;28;836;-37
2021/08/21 09:11:38;;;;;;;;;;;;;;;28.22;37.19;100909.59;5078403;28;1403;-37
2021/08/21 09:14:15;;;;;;;;;;;;;;;28.05;36.49;100911.63;5077078;28;1349;-37
2021/08/21 09:16:41;;;;;;;;;;;;;;;27.98;36.29;100903.41;5082336;28;1959;-41
2021/08/21 09:19:06;;;;;;;;;;;;;;;27.83;37.17;100907.94;5090545;28;1392;-40
2021/08/21 09:21:32;;;;;;;;;;;;;;;27.62;37.60;100904.94;5098721;28;843;-36
2021/08/21 09:23:57;;;;;;;;;;;;;;;27.50;38.14;100904.53;5081254;28;815;-38
2021/08/21 09:26:30;;;;;;;;;;;;;;;27.42;38.27;100901.88;5078767;28;796;-37
2021/08/21 09:28:57;;;;;;;;;;;;;;;27.77;37.84;100897.88;5078706;28;750;-37
2021/08/21 09:31:23;;;;;;;;;;;;;;;28.13;37.81;100908.00;5079635;28;974;-41
2021/08/21 09:33:52;;;;;;;;;;;;;;;28.03;37.66;100910.97;5097685;28;830;-38
2021/08/21 09:36:30;;;;;;;;;;;;;;;27.73;37.15;100919.88;5098377;28;1960;-39
2021/08/21 09:38:56;;;;;;;;;;;;;;;27.71;37.43;100911.09;5098415;28;839;-38
2021/08/21 09:41:21;;;;;;;;;;;;;;;27.81;36.77;100907.31;5089580;28;1490;-42
2021/08/21 09:43:46;;;;;;;;;;;;;;;27.91;36.96;100915.97;5098681;28;771;-42
2021/08/21 09:46:16;;;;;;;;;;;;;;;27.69;37.59;100905.06;5097524;28;832;-40
2021/08/21 09:49:01;;;;;;;;;;;;;;;28.09;36.93;100907.50;5077212;28;1119;-41
2021/08/21 09:51:45;;;;;;;;;;;;;;;28.24;37.28;100901.28;5078034;28;1185;-42
2021/08/21 09:54:12;;;;;;;;;;;;;;;28.39;37.47;100906.72;5078484;28;1210;-39
2021/08/21 09:56:38;;;;;;;;;;;;;;;28.42;37.36;100903.63;5077643;28;1898;-42
2021/08/21 09:59:04;;;;;;;;;;;;;;;28.50;37.73;100893.72;5080336;28;852;-41
2021/08/21 10:01:29;;;;;;;;;;;;;;;28.53;37.70;100899.59;5079800;28;982;-42
2021/08/21 10:03:57;;;;;;;;;;;;;;;28.63;37.57;100899.28;5097710;28;775;-43
2021/08/21 10:06:23;;;;;;;;;;;;;;;28.65;37.88;100894.53;5098224;28;788;-42
2021/08/21 10:08:53;;;;;;;;;;;;;;;28.67;37.72;100892.50;5092479;28;1344;-41
2021/08/21 10:11:18;;;;;;;;;;;;;;;28.72;37.35;100886.50;5082097;28;824;-41
2021/08/21 10:13:43;;;;;;;;;;;;;;;28.73;36.94;100893.56;5077942;28;800;-43
2021/08/21 10:16:09;;;;;;;;;;;;;;;28.84;37.02;100901.19;5077345;28;1973;-42
2021/08/21 10:18:34;;;;;;;;;;;;;;;28.78;37.41;100891.16;5097339;28;950;-43
2021/08/21 10:20:59;;;;;;;;;;;;;;;28.79;37.42;100897.41;5097832;28;891;-42
2021/08/21 10:23:27;;;;;;;;;;;;;;;28.81;37.40;100892.66;5096926;28;812;-43
2021/08/21 10:26:13;;;;;;;;;;;;;;;28.85;37.64;100896.63;5096497;28;808;-43
2021/08/21 10:28:39;;;;;;;;;;;;;;;28.87;37.92;100894.59;5097474;28;1282;-41
2021/08/21 10:31:05;;;;;;;;;;;;;;;28.90;37.97;100894.19;5095608;28;1370;-41
2021/08/21 10:33:50;;;;;;;;;;;;;;;28.88;38.23;100890.00;5075900;28;986;-40
2021/08/21 10:36:26;;;;;;;;;;;;;;;28.89;38.00;100891.69;5076169;28;2129;-41
2021/08/21 10:38:51;;;;;;;;;;;;;;;28.92;38.62;100899.41;5076881;28;775;-39
2021/08/21 10:41:25;;;;;;;;;;;;;;;28.99;38.65;100897.66;5075589;28;1206;-38
2021/08/21 10:43:54;;;;;;;;;;;;;;;28.98;38.82;100900.56;5086067;28;1550;-41
2021/08/21 10:46:43;;;;;;;;;;;;;;;29.01;38.75;100895.56;5095399;28;890;-41
2021/08/21 10:49:08;;;;;;;;;;;;;;;29.02;38.79;100901.84;5067961;28;1856;-41
2021/08/21 10:51:35;;;;;;;;;;;;;;;29.02;38.31;100889.16;5075633;28;1147;-40
2021/08/21 10:54:00;;;;;;;;;;;;;;;29.03;39.11;100893.53;5076858;28;847;-42
2021/08/21 10:56:35;;;;;;;;;;;;;;;29.04;39.10;100889.81;5076650;28;1914;-36
2021/08/21 10:59:00;;;;;;;;;;;;;;;29.03;39.13;100898.94;5083118;28;1495;-41
2021/08/21 11:01:26;;;;;;;;;;;;;;;29.14;39.03;100891.34;5094441;28;812;-41
2021/08/21 11:03:51;;;;;;;;;;;;;;;29.09;39.23;100891.94;5075071;28;863;-40
2021/08/21 11:06:17;;;;;;;;;;;;;;;29.08;39.32;100885.66;5076874;28;837;-40
2021/08/21 11:08:42;;;;;;;;;;;;;;;29.08;39.42;100882.94;5075083;28;1164;-41
2021/08/21 11:13:55;;;;;;;;;;;;;;;29.17;39.15;100888.22;5076027;28;788;-42
2021/08/21 11:16:21;;;;;;;;;;;;;;;29.19;39.07;100899.72;5077889;28;1901;-38
2021/08/21 11:18:47;;;;;;;;;;;;;;;29.23;39.28;100903.72;5096720;28;772;-38
2021/08/21 11:21:30;;;;;;;;;;;;;;;29.24;39.57;100905.41;5096467;28;810;-39
2021/08/21 11:23:56;;;;;;;;;;;;;;;29.20;39.44;100899.53;5097072;28;819;-41
2021/08/21 11:26:22;;;;;;;;;;;;;;;29.25;38.98;100900.81;5096181;28;831;-40
2021/08/21 11:28:54;;;;;;;;;;;;;;;29.31;39.34;100900.03;5096579;28;748;-39
2021/08/21 11:31:19;;;;;;;;;;;;;;;29.26;39.29;100895.19;5093910;28;1266;-40
2021/08/21 11:33:45;;;;;;;;;;;;;;;29.36;39.21;100894.03;5076352;28;930;-42
2021/08/21 11:36:10;;;;;;;;;;;;;;;29.31;39.34;100889.22;5088007;28;1972;-37
2021/08/21 11:38:36;;;;;;;;;;;;;;;29.30;39.21;100891.06;5087983;28;1297;-40
2021/08/21 11:41:04;;;;;;;;;;;;;;;29.29;39.41;100891.28;5088641;28;1040;-41
2021/08/21 11:43:30;;;;;;;;;;;;;;;29.36;39.12;100883.19;5076527;28;1515;-41
2021/08/21 11:45:56;;;;;;;;;;;;;;;29.36;39.33;100875.91;5076657;28;756;-38
2021/08/21 11:48:31;;;;;;;;;;;;;;;29.42;39.51;100883.25;5093509;28;1567;-40
2021/08/21 11:50:56;;;;;;;;;;;;;;;29.40;39.56;100874.47;5085282;28;828;-41
2021/08/21 11:53:23;;;;;;;;;;;;;;;29.40;39.50;100881.75;5075505;28;887;-37
2021/08/21 11:55:49;;;;;;;;;;;;;;;29.48;39.33;100878.09;5075886;28;902;-40
2021/08/21 11:58:14;;;;;;;;;;;;;;;29.48;39.60;100881.63;5076012;28;1977;-37
2021/08/21 12:00:42;;;;;;;;;;;;;;;29.44;39.60;100875.78;5076073;28;797;-38
2021/08/21 12:03:08;;;;;;;;;;;;;;;29.46;39.33;100873.69;5076998;28;851;-39
2021/08/21 12:05:37;;;;;;;;;;;;;;;29.45;39.52;100874.72;5075736;28;816;-39
2021/08/21 12:08:32;;;;;;;;;;;;;;;29.49;39.72;100874.34;5076065;28;747;-38
2021/08/21 12:10:58;;;;;;;;;;;;;;;29.50;39.77;100870.59;5058643;28;1489;-38
2021/08/21 12:13:27;;;;;;;;;;;;;;;29.39;39.74;100871.97;5076458;28;871;-38
2021/08/21 12:15:53;;;;;;;;;;;;;;;29.39;39.88;100864.69;5074698;28;796;-37
2021/08/21 12:18:19;;;;;;;;;;;;;;;29.42;39.55;100867.00;5074474;28;1953;-40
2021/08/21 12:20:45;;;;;;;;;;;;;;;29.37;40.13;100866.75;5094824;28;846;-39
2021/08/21 12:23:11;;;;;;;;;;;;;;;28.60;41.47;100856.38;5083525;28;855;-37
2021/08/21 12:25:48;;;;;;;;;;;;;;;28.04;41.50;100860.44;5077141;28;815;-35
2021/08/21 12:28:14;;;;;;;;;;;;;;;26.80;42.33;100858.59;5079752;28;744;-40
2021/08/21 12:30:40;;;;;;;;;;;;;;;26.14;42.60;100857.84;5079439;28;823;-40
2021/08/21 12:33:08;;;;;;;;;;;;;;;25.92;43.01;100864.81;5081075;28;855;-41
2021/08/21 12:35:34;;;;;;;;;;;;;;;27.39;41.04;100864.44;5079735;28;795;-34
2021/08/21 12:38:05;;;;;;;;;;;;;;;27.36;40.42;100857.50;5077799;28;1906;-35
2021/08/21 12:40:31;;;;;;;;;;;;;;;25.97;42.95;100857.06;5079555;28;728;-38
2021/08/21 12:43:01;;;;;;;;;;;;;;;25.53;43.47;100864.50;5081223;28;1356;-37
2021/08/21 12:45:26;;;;;;;;;;;;;;;26.34;43.43;100856.63;5079406;28;827;-36
2021/08/21 12:47:52;;;;;;;;;;;;;;;27.75;40.15;100863.78;5079359;28;1082;-38
2021/08/21 12:50:17;;;;;;;;;;;;;;;26.07;42.74;100862.25;5079177;28;797;-43